Terminal Aerodrome Forecast
Issued by NWS

Home | Current Version | Previous Version | Text Only | Print | Product List | Glossary On
Versions: 1 2 3 4 5 6 7 8 9 10 11 12 13 14 15 16 17 18 19 20
682
FTUS46 KSGX 241131
TAFCRQ
TAF
KCRQ 241131Z 2412/2512 VRB04KT 2SM BR OVC003
     FM241400 VRB04KT 4SM BR BKN005
     FM241700 VRB04KT 6SM HZ SCT007 SCT250
     FM241900 27008KT P6SM SCT250
     FM250000 VRB04KT P6SM SCT009
     FM250200 VRB03KT 5SM BR OVC007=

USA.gov is the U.S. government's official web portal to all federal, state and local government web resources and services.